Time;durP1;ratioP1;P1;durP2;ratioP2;P2;SDS_P1;SDS_P2;PMS_P1;PMS_P2;Temp;Humidity;BMP_temperature;BMP_pressure;BME280_temperature;BME280_humidity;BME280_pressure;Samples;Min_cycle;Max_cycle;Signal;HPM_P1;HPM_P2
2022/04/12 00:00:00;;;;;;;11.25;5.00;;;6.90;52.00;;;;;;5071994;28;20068;-72
2022/04/12 00:02:52;;;;;;;8.02;3.80;;;6.80;52.50;;;;;;5073987;28;20040;-72
2022/04/12 00:05:21;;;;;;;9.82;4.40;;;6.80;52.20;;;;;;5039675;28;20047;-73
2022/04/12 00:07:50;;;;;;;8.07;3.88;;;6.80;52.00;;;;;;5073881;28;20061;-72
2022/04/12 00:10:33;;;;;;;9.57;4.95;;;6.70;51.50;;;;;;5072195;28;20024;-72
2022/04/12 00:13:22;;;;;;;12.13;5.03;;;6.70;52.20;;;;;;5072890;28;20123;-72
2022/04/12 00:16:11;;;;;;;11.02;5.00;;;6.60;52.00;;;;;;5071022;28;20051;-72
2022/04/12 00:21:23;;;;;;;7.50;3.78;;;6.60;52.10;;;;;;5072195;28;20031;-72
2022/04/12 00:23:58;;;;;;;10.02;4.65;;;6.60;52.10;;;;;;5072402;28;20041;-72
2022/04/12 00:26:41;;;;;;;9.25;4.50;;;6.50;52.30;;;;;;5073631;28;20029;-72
2022/04/12 00:29:07;;;;;;;13.88;5.80;;;6.50;52.30;;;;;;5072606;28;20032;-72
2022/04/12 00:31:40;;;;;;;11.38;5.10;;;6.50;52.30;;;;;;5052687;28;20085;-72
2022/04/12 00:34:13;;;;;;;14.02;5.20;;;6.40;52.40;;;;;;5070833;28;20045;-72
2022/04/12 00:36:45;;;;;;;10.57;4.90;;;6.40;52.40;;;;;;5070241;28;20143;-72
2022/04/12 00:40:02;;;;;;;10.27;4.60;;;6.40;52.40;;;;;;5070933;28;20032;-72
2022/04/12 00:42:31;;;;;;;8.55;3.75;;;6.30;52.50;;;;;;5053890;28;20048;-72
2022/04/12 00:44:59;;;;;;;12.18;4.57;;;6.30;52.50;;;;;;5053057;28;20050;-73
2022/04/12 00:47:28;;;;;;;9.27;4.55;;;6.20;52.70;;;;;;5070150;28;20452;-72
2022/04/12 00:49:54;;;;;;;9.88;4.60;;;6.20;52.80;;;;;;5054342;28;20040;-72
2022/04/12 00:52:23;;;;;;;9.43;4.18;;;6.10;53.10;;;;;;5053481;28;20329;-72
2022/04/12 00:54:50;;;;;;;10.05;3.95;;;5.90;52.90;;;;;;5054355;28;20044;-72
2022/04/12 00:57:29;;;;;;;8.00;4.20;;;5.90;53.10;;;;;;5053393;28;20044;-71
2022/04/12 01:00:11;;;;;;;10.85;4.05;;;5.90;53.10;;;;;;5069762;28;20032;-72
2022/04/12 01:02:39;;;;;;;8.15;3.50;;;5.80;53.10;;;;;;5068042;28;20136;-72
2022/04/12 01:05:10;;;;;;;10.13;3.70;;;5.80;53.00;;;;;;5053777;28;20037;-72
2022/04/12 01:08:08;;;;;;;7.90;3.38;;;5.80;53.10;;;;;;5070402;28;20090;-71
2022/04/12 01:10:35;;;;;;;9.38;3.42;;;5.80;53.20;;;;;;5052468;28;20394;-72
2022/04/12 01:13:12;;;;;;;7.18;3.05;;;5.80;53.30;;;;;;5051513;28;20045;-72
2022/04/12 01:15:42;;;;;;;9.15;3.65;;;5.70;53.60;;;;;;5063727;28;20086;-72
2022/04/12 01:18:16;;;;;;;9.18;4.00;;;5.70;53.60;;;;;;5039101;28;20037;-72
2022/04/12 01:20:42;;;;;;;10.40;3.97;;;5.70;53.70;;;;;;5071053;28;20409;-72
2022/04/12 01:23:41;;;;;;;7.80;2.80;;;5.70;53.80;;;;;;5071462;28;20478;-72
2022/04/12 01:26:21;;;;;;;;;;;;;;;;;;;;;
2022/04/12 01:28:52;;;;;;;7.88;4.22;;;5.60;53.20;;;;;;5072658;28;20052;-73
2022/04/12 01:31:23;;;;;;;7.93;3.40;;;5.70;54.10;;;;;;5070172;28;20090;-72
2022/04/12 01:33:56;;;;;;;9.02;3.97;;;5.70;54.00;;;;;;5071471;28;20045;-72
2022/04/12 01:36:40;;;;;;;9.88;4.13;;;5.60;54.10;;;;;;5070742;28;20052;-72
2022/04/12 01:39:09;;;;;;;9.57;3.85;;;5.60;54.00;;;;;;5054407;28;20086;-72
2022/04/12 01:41:52;;;;;;;8.98;4.40;;;5.60;54.00;;;;;;5071195;28;20036;-72
2022/04/12 01:44:19;;;;;;;7.70;3.88;;;5.60;54.20;;;;;;5077471;28;20632;-72
2022/04/12 01:46:50;;;;;;;9.00;4.40;;;5.50;54.40;;;;;;5077196;28;20041;-72
2022/04/12 01:49:39;;;;;;;8.43;4.13;;;5.50;54.40;;;;;;5077955;28;20379;-71
2022/04/12 01:52:06;;;;;;;10.80;4.47;;;5.50;54.40;;;;;;5077520;28;20033;-72
2022/04/12 01:54:40;;;;;;;10.80;4.38;;;5.40;54.30;;;;;;5077831;28;20031;-72
2022/04/12 01:57:06;;;;;;;10.90;5.50;;;5.50;54.70;;;;;;5077451;28;20322;-71
2022/04/12 01:59:39;;;;;;;13.02;5.70;;;5.40;54.40;;;;;;5078210;28;20089;-72
2022/04/12 02:05:07;;;;;;;16.40;7.30;;;5.40;54.50;;;;;;5076278;28;20505;-72
2022/04/12 02:07:44;;;;;;;10.32;5.38;;;5.30;53.90;;;;;;5076173;28;20045;-72
2022/04/12 02:10:11;;;;;;;;;;;5.30;54.60;;;;;;5076771;28;20032;-72
2022/04/12 02:12:47;;;;;;;9.23;5.23;;;5.30;53.40;;;;;;5059436;28;20317;-72
2022/04/12 02:15:19;;;;;;;12.43;5.43;;;5.20;54.30;;;;;;5075210;28;20055;-72
2022/04/12 02:17:45;;;;;;;11.57;5.03;;;5.20;54.30;;;;;;5059988;28;20048;-72
2022/04/12 02:20:11;;;;;;;12.57;6.45;;;5.20;54.50;;;;;;5075706;28;20402;-72
2022/04/12 02:22:38;;;;;;;11.23;5.55;;;5.20;54.00;;;;;;5075928;28;20055;-72
2022/04/12 02:25:05;;;;;;;12.45;6.07;;;5.10;54.80;;;;;;5076318;28;20239;-72
2022/04/12 02:27:41;;;;;;;12.60;5.60;;;5.00;54.90;;;;;;5059325;28;20049;-72
2022/04/12 02:30:16;;;;;;;10.32;5.13;;;5.00;55.50;;;;;;5058352;28;20064;-72
2022/04/12 02:32:42;;;;;;;13.23;4.32;;;4.90;55.20;;;;;;5076191;28;20132;-72
2022/04/12 02:35:09;;;;;;;8.23;3.08;;;5.00;55.20;;;;;;5058834;28;20052;-72
2022/04/12 02:37:36;;;;;;;6.75;2.92;;;4.90;55.10;;;;;;5077580;28;20028;-72
2022/04/12 02:40:38;;;;;;;7.35;3.00;;;4.90;55.20;;;;;;5077160;28;20037;-72
2022/04/12 02:43:08;;;;;;;6.88;2.85;;;5.00;55.10;;;;;;5078380;28;20078;-72
2022/04/12 02:45:36;;;;;;;8.60;2.85;;;4.90;55.20;;;;;;5059233;28;20043;-71
2022/04/12 02:48:03;;;;;;;6.15;2.35;;;4.90;55.10;;;;;;5077463;28;20064;-72
2022/04/12 02:50:34;;;;;;;5.88;2.40;;;4.90;55.20;;;;;;5077053;28;20079;-72
2022/04/12 02:53:07;;;;;;;5.47;2.38;;;4.80;54.60;;;;;;5077344;28;20086;-72
2022/04/12 02:55:34;;;;;;;11.13;3.42;;;4.80;54.70;;;;;;5073052;28;20039;-72
2022/04/12 02:58:29;;;;;;;9.13;3.75;;;4.70;54.90;;;;;;5057833;28;20392;-72
2022/04/12 03:00:55;;;;;;;8.50;3.03;;;4.80;55.90;;;;;;5074237;28;20052;-73
2022/04/12 03:03:21;;;;;;;6.10;2.20;;;4.70;55.70;;;;;;5075248;28;20112;-72
2022/04/12 03:06:26;;;;;;;8.13;2.28;;;4.70;55.60;;;;;;5074686;28;20045;-72
2022/04/12 03:09:02;;;;;;;8.75;3.22;;;4.70;55.80;;;;;;5071188;28;20056;-72
2022/04/12 03:11:28;;;;;;;9.43;4.05;;;4.70;55.70;;;;;;5057573;28;20037;-72
2022/04/12 03:14:02;;;;;;;7.97;3.05;;;4.70;55.70;;;;;;5056995;28;20037;-72
2022/04/12 03:16:30;;;;;;;9.18;3.55;;;4.60;56.10;;;;;;5073923;28;20052;-72
2022/04/12 03:18:56;;;;;;;9.27;3.72;;;4.60;56.30;;;;;;5057044;28;20090;-71
2022/04/12 03:21:25;;;;;;;7.78;3.38;;;4.50;56.50;;;;;;5074527;28;20090;-72
2022/04/12 03:23:53;;;;;;;7.60;3.28;;;4.50;56.60;;;;;;5073542;28;20033;-72
2022/04/12 03:26:39;;;;;;;6.68;2.90;;;4.50;56.60;;;;;;5073136;28;20051;-71
2022/04/12 03:29:05;;;;;;;6.57;2.65;;;4.50;56.30;;;;;;5073428;28;20044;-71
2022/04/12 03:31:39;;;;;;;;;;;4.60;56.40;;;;;;5074105;28;20039;-72
2022/04/12 03:34:05;;;;;;;11.38;3.95;;;4.50;55.60;;;;;;5073503;28;20296;-72
2022/04/12 03:36:42;;;;;;;31.27;10.05;;;4.50;56.20;;;;;;5074113;28;20048;-71
2022/04/12 03:39:17;;;;;;;26.58;8.25;;;4.50;56.40;;;;;;5074537;28;20440;-72
2022/04/12 03:42:04;;;;;;;14.57;4.90;;;4.50;56.40;;;;;;5073994;28;20040;-72
2022/04/12 03:44:46;;;;;;;9.10;3.70;;;4.50;56.70;;;;;;5056847;28;20459;-71
2022/04/12 03:47:22;;;;;;;11.60;4.28;;;4.50;56.60;;;;;;5069050;28;20036;-72
2022/04/12 03:49:49;;;;;;;9.77;4.25;;;4.50;56.70;;;;;;5074383;28;20029;-72
2022/04/12 03:52:22;;;;;;;9.98;3.78;;;4.40;57.20;;;;;;5072634;28;20547;-72
2022/04/12 03:55:04;;;;;;;12.50;4.38;;;4.40;56.40;;;;;;5056396;28;20396;-71
2022/04/12 03:57:32;;;;;;;9.23;3.35;;;4.40;56.50;;;;;;5072958;28;20086;-72
2022/04/12 04:00:08;;;;;;;8.75;3.95;;;4.40;57.20;;;;;;5072915;28;20037;-72
2022/04/12 04:02:38;;;;;;;6.78;3.10;;;4.40;56.30;;;;;;5073507;28;20032;-71
2022/04/12 04:05:36;;;;;;;7.97;3.78;;;4.30;56.20;;;;;;5072648;28;20033;-71
2022/04/12 04:08:06;;;;;;;9.27;4.05;;;4.40;56.30;;;;;;5057086;28;20044;-72
2022/04/12 04:11:06;;;;;;;8.90;3.38;;;4.30;55.80;;;;;;5072204;28;20035;-72
2022/04/12 04:13:40;;;;;;;6.30;2.92;;;4.30;56.30;;;;;;5072476;28;20053;-72
2022/04/12 04:16:23;;;;;;;9.52;4.13;;;4.20;56.20;;;;;;5072467;28;20043;-72
2022/04/12 04:18:50;;;;;;;9.70;3.83;;;4.30;56.40;;;;;;5074116;28;20047;-72
2022/04/12 04:21:19;;;;;;;8.23;3.53;;;4.20;56.30;;;;;;5073197;28;20044;-73
2022/04/12 04:24:01;;;;;;;8.13;2.38;;;4.20;56.50;;;;;;5073649;28;20485;-72
2022/04/12 04:26:28;;;;;;;6.47;2.80;;;4.20;56.60;;;;;;5071061;28;20052;-72
2022/04/12 04:29:00;;;;;;;6.95;3.08;;;4.10;56.40;;;;;;5070778;28;20139;-72
2022/04/12 04:31:30;;;;;;;10.73;4.90;;;4.10;56.50;;;;;;5053027;28;20044;-72
2022/04/12 04:33:56;;;;;;;11.82;4.85;;;4.10;56.50;;;;;;5071044;28;20051;-72
2022/04/12 04:36:59;;;;;;;7.82;3.03;;;4.10;56.50;;;;;;5057246;28;20562;-72
2022/04/12 04:39:28;;;;;;;6.80;2.80;;;4.10;56.50;;;;;;5070942;28;20038;-72
2022/04/12 04:41:57;;;;;;;9.30;3.20;;;4.10;56.50;;;;;;5054148;28;20400;-72
2022/04/12 04:44:23;;;;;;;9.48;4.20;;;4.00;56.60;;;;;;5054137;28;20086;-71
2022/04/12 04:46:49;;;;;;;9.23;4.00;;;3.90;56.70;;;;;;5069444;28;20052;-72
2022/04/12 04:49:27;;;;;;;7.57;3.33;;;3.90;56.80;;;;;;5020835;28;20037;-72
2022/04/12 04:51:57;;;;;;;6.63;2.53;;;4.00;56.80;;;;;;5070145;28;20035;-72
2022/04/12 04:54:23;;;;;;;10.00;4.30;;;4.00;56.80;;;;;;5037299;28;20055;-71
2022/04/12 04:56:51;;;;;;;10.32;5.20;;;4.00;56.80;;;;;;5053472;28;20044;-72
2022/04/12 04:59:20;;;;;;;10.85;3.75;;;4.10;56.70;;;;;;5037679;28;20140;-72
2022/04/12 05:01:56;;;;;;;8.73;3.22;;;4.20;56.70;;;;;;5069089;28;20037;-71
2022/04/12 05:04:24;;;;;;;8.20;4.22;;;4.20;56.70;;;;;;5022940;28;20044;-72
2022/04/12 05:06:53;;;;;;;12.43;5.80;;;4.20;56.50;;;;;;5071035;28;20493;-72
2022/04/12 05:09:22;;;;;;;14.45;6.30;;;4.20;56.50;;;;;;5071506;28;20581;-72
2022/04/12 05:11:59;;;;;;;19.23;5.25;;;4.30;56.70;;;;;;5054342;28;20090;-72
2022/04/12 05:14:25;;;;;;;9.25;3.13;;;4.30;57.00;;;;;;5039463;28;20032;-71
2022/04/12 05:16:53;;;;;;;7.95;3.65;;;4.40;56.90;;;;;;5070885;28;20049;-71
2022/04/12 05:19:39;;;;;;;6.72;2.88;;;4.40;56.80;;;;;;5071631;28;20469;-72
2022/04/12 05:22:05;;;;;;;;;;;4.40;56.80;;;;;;5071711;28;20047;-72
2022/04/12 05:24:34;;;;;;;7.03;2.90;;;4.50;56.50;;;;;;5072736;28;19916;-72
2022/04/12 05:27:05;;;;;;;7.75;3.97;;;4.50;56.90;;;;;;5071055;28;20032;-72
2022/04/12 05:29:31;;;;;;;12.75;4.85;;;4.60;57.00;;;;;;5071435;28;20470;-72
2022/04/12 05:32:18;;;;;;;14.43;6.68;;;4.60;57.10;;;;;;5070449;28;20025;-72
2022/04/12 05:34:48;;;;;;;17.15;8.52;;;4.70;56.90;;;;;;5054510;28;20043;-72
2022/04/12 05:37:31;;;;;;;22.33;10.20;;;4.80;57.10;;;;;;5070230;28;20105;-72
2022/04/12 05:39:57;;;;;;;16.27;9.40;;;4.90;57.50;;;;;;5071383;28;20040;-72
2022/04/12 05:43:08;;;;;;;17.98;9.18;;;5.00;57.00;;;;;;5070970;28;20032;-72
2022/04/12 05:45:43;;;;;;;13.93;8.15;;;5.10;57.10;;;;;;5072005;28;20390;-72
2022/04/12 05:48:39;;;;;;;15.23;7.65;;;5.20;57.10;;;;;;5070510;28;20048;-72
2022/04/12 05:51:21;;;;;;;14.35;7.63;;;5.30;57.20;;;;;;5072030;28;20032;-72
2022/04/12 05:54:10;;;;;;;13.77;7.50;;;5.40;57.00;;;;;;5072327;28;20135;-72
2022/04/12 05:57:17;;;;;;;16.05;7.65;;;5.50;56.90;;;;;;5072075;28;20128;-72
2022/04/12 05:59:45;;;;;;;13.95;8.50;;;5.60;57.00;;;;;;5071140;28;20078;-72
2022/04/12 06:02:14;;;;;;;17.90;10.68;;;5.60;56.80;;;;;;5071258;28;20041;-72
2022/04/12 06:04:41;;;;;;;18.10;11.38;;;5.80;56.90;;;;;;5072302;28;20036;-72
2022/04/12 06:07:27;;;;;;;17.30;10.50;;;5.90;57.00;;;;;;5070648;28;20393;-72
2022/04/12 06:10:02;;;;;;;18.42;10.63;;;6.00;57.10;;;;;;5072311;28;20033;-72
2022/04/12 06:12:37;;;;;;;18.15;9.32;;;6.10;57.00;;;;;;5070924;28;20033;-72
2022/04/12 06:15:11;;;;;;;15.00;9.00;;;6.20;57.20;;;;;;5070678;28;20039;-72
2022/04/12 06:17:38;;;;;;;13.85;8.73;;;6.40;57.20;;;;;;5070313;28;20033;-72
2022/04/12 06:20:23;;;;;;;18.27;7.22;;;6.50;56.80;;;;;;5054003;28;20029;-72
2022/04/12 06:22:53;;;;;;;11.10;5.72;;;6.60;57.60;;;;;;5071050;28;20037;-71
2022/04/12 06:25:25;;;;;;;12.65;5.57;;;6.70;57.10;;;;;;5070644;28;20041;-72
2022/04/12 06:28:18;;;;;;;13.18;6.20;;;6.90;57.00;;;;;;5072557;28;20060;-72
2022/04/12 06:30:51;;;;;;;11.80;5.15;;;7.10;57.20;;;;;;5072967;28;20448;-72
2022/04/12 06:33:20;;;;;;;8.93;4.65;;;7.20;56.10;;;;;;5073709;28;20106;-72
2022/04/12 06:35:48;;;;;;;13.57;6.45;;;7.30;56.30;;;;;;5057123;28;20056;-71
2022/04/12 06:38:34;;;;;;;9.77;5.80;;;7.40;56.30;;;;;;5075830;28;20520;-72
2022/04/12 06:41:32;;;;;;;13.57;7.93;;;7.60;56.10;;;;;;5073935;28;20418;-72
2022/04/12 06:43:58;;;;;;;12.85;6.10;;;7.80;56.00;;;;;;5074560;28;20397;-72
2022/04/12 06:46:24;;;;;;;14.68;8.32;;;7.90;55.50;;;;;;5057094;28;20542;-72
2022/04/12 06:48:56;;;;;;;9.43;4.65;;;8.00;55.30;;;;;;5073230;28;20036;-72
2022/04/12 06:51:23;;;;;;;10.80;4.05;;;8.20;55.20;;;;;;5075170;28;20435;-72
2022/04/12 06:53:57;;;;;;;8.75;4.65;;;8.30;55.00;;;;;;5057433;28;20123;-72
2022/04/12 06:56:33;;;;;;;9.73;3.88;;;8.50;55.10;;;;;;5075012;28;20108;-72
2022/04/12 06:59:26;;;;;;;9.50;3.93;;;8.60;54.60;;;;;;5074209;28;20037;-72
2022/04/12 07:02:08;;;;;;;;;;;;;;;;;;;;;
2022/04/12 07:04:36;;;;;;;7.95;3.55;;;9.00;53.80;;;;;;5093173;28;20410;-72
2022/04/12 07:07:03;;;;;;;6.20;2.67;;;9.10;53.50;;;;;;5075342;28;20027;-71
2022/04/12 07:09:30;;;;;;;6.13;2.78;;;9.30;52.60;;;;;;5092954;28;20048;-72
2022/04/12 07:12:00;;;;;;;8.45;3.13;;;9.40;51.90;;;;;;5075492;28;20489;-72
2022/04/12 07:14:31;;;;;;;5.78;2.72;;;9.70;51.40;;;;;;5075774;28;20043;-72
2022/04/12 07:16:59;;;;;;;5.93;2.22;;;10.00;51.30;;;;;;5092317;28;20198;-72
2022/04/12 07:19:27;;;;;;;;;;;10.50;51.40;;;;;;5092608;28;20043;-72
2022/04/12 07:21:55;;;;;;;6.53;2.10;;;11.00;52.20;;;;;;5075403;28;19962;-72
2022/04/12 07:24:54;;;;;;;7.53;2.80;;;11.60;50.80;;;;;;5092630;28;20101;-73
2022/04/12 07:27:24;;;;;;;6.35;2.42;;;12.10;49.10;;;;;;5091904;28;20492;-73
2022/04/12 07:29:55;;;;;;;5.97;1.80;;;12.80;48.80;;;;;;5075657;28;20428;-72
2022/04/12 07:32:45;;;;;;;7.40;3.33;;;13.40;47.80;;;;;;5074792;28;20483;-73
2022/04/12 07:35:21;;;;;;;4.35;1.95;;;14.00;46.70;;;;;;5090715;28;20117;-73
2022/04/12 07:38:03;;;;;;;5.25;2.03;;;14.70;45.40;;;;;;5075626;28;20036;-73
2022/04/12 07:40:29;;;;;;;7.97;2.90;;;15.20;44.50;;;;;;5091533;28;20040;-73
2022/04/12 07:43:02;;;;;;;5.00;2.22;;;15.80;43.60;;;;;;5092300;28;20044;-73
2022/04/12 07:45:28;;;;;;;6.30;2.25;;;16.50;42.30;;;;;;5071774;28;20088;-73
2022/04/12 07:47:59;;;;;;;4.05;1.58;;;17.10;40.00;;;;;;5054895;28;20051;-73
2022/04/12 07:50:55;;;;;;;16.58;2.70;;;17.50;38.10;;;;;;5072320;28;20111;-72
2022/04/12 07:53:21;;;;;;;5.65;2.05;;;18.00;37.30;;;;;;5073074;28;20040;-73
2022/04/12 07:55:50;;;;;;;5.97;2.35;;;18.70;35.20;;;;;;5073731;28;20037;-73
2022/04/12 07:58:19;;;;;;;4.13;1.60;;;19.20;34.80;;;;;;5072942;28;20033;-73
2022/04/12 08:00:45;;;;;;;5.18;2.17;;;19.80;33.20;;;;;;5072440;28;20066;-73
2022/04/12 08:03:27;;;;;;;5.43;2.20;;;20.50;32.50;;;;;;5071953;28;20097;-73
2022/04/12 08:05:56;;;;;;;4.90;1.83;;;21.10;30.40;;;;;;5072412;28;20035;-73
2022/04/12 08:08:22;;;;;;;5.82;1.60;;;21.70;30.00;;;;;;5073835;28;20111;-74
2022/04/12 08:10:48;;;;;;;;;;;22.30;29.00;;;;;;5072799;28;20157;-73
2022/04/12 08:13:31;;;;;;;4.97;2.25;;;22.80;31.60;;;;;;5073859;28;19923;-73
2022/04/12 08:15:57;;;;;;;4.95;1.60;;;23.50;27.90;;;;;;5073802;28;20031;-73
2022/04/12 08:18:26;;;;;;;4.80;1.45;;;23.90;26.70;;;;;;5071759;28;20028;-74
2022/04/12 08:20:59;;;;;;;4.78;1.55;;;24.30;25.30;;;;;;5055768;28;20119;-73
2022/04/12 08:23:28;;;;;;;3.78;1.20;;;25.00;24.40;;;;;;5072633;28;20037;-73
2022/04/12 08:26:04;;;;;;;3.78;1.25;;;25.20;22.90;;;;;;5071989;28;20033;-73
2022/04/12 08:28:36;;;;;;;2.03;1.17;;;25.30;21.20;;;;;;5072240;28;20064;-74
2022/04/12 08:31:04;;;;;;;2.47;0.88;;;25.70;20.20;;;;;;5073391;28;20055;-74
2022/04/12 08:34:03;;;;;;;3.92;1.00;;;26.10;20.20;;;;;;5071401;28;20045;-73
2022/04/12 08:36:29;;;;;;;3.53;0.90;;;26.70;19.50;;;;;;5072193;28;20374;-74
2022/04/12 08:38:57;;;;;;;3.17;1.10;;;27.20;19.00;;;;;;5072155;28;20074;-73
2022/04/12 08:41:29;;;;;;;2.30;1.05;;;27.60;17.80;;;;;;5071640;28;20040;-73
2022/04/12 08:43:58;;;;;;;2.65;1.05;;;27.70;17.60;;;;;;5069151;28;20033;-74
2022/04/12 08:46:28;;;;;;;3.40;1.00;;;28.50;17.10;;;;;;5071581;28;20195;-74
2022/04/12 08:49:02;;;;;;;3.80;1.38;;;29.10;16.10;;;;;;5070973;28;20041;-73
2022/04/12 08:51:31;;;;;;;2.90;0.90;;;29.60;16.30;;;;;;5070997;28;20035;-74
2022/04/12 08:54:02;;;;;;;5.07;2.10;;;30.20;15.70;;;;;;5072992;28;20028;-74
2022/04/12 08:56:35;;;;;;;2.67;1.30;;;30.80;14.40;;;;;;5055246;28;20464;-73
2022/04/12 08:59:08;;;;;;;4.45;1.13;;;31.20;14.60;;;;;;5071804;28;20418;-73
2022/04/12 09:01:37;;;;;;;5.30;1.10;;;31.70;14.80;;;;;;5071425;28;20049;-74
2022/04/12 09:04:27;;;;;;;3.35;1.30;;;32.00;14.10;;;;;;5070980;28;20442;-73
2022/04/12 09:07:00;;;;;;;2.70;1.10;;;32.80;13.90;;;;;;5072620;28;20043;-73
2022/04/12 09:10:12;;;;;;;4.07;1.20;;;32.80;13.40;;;;;;5071707;28;20040;-74
2022/04/12 09:12:41;;;;;;;3.67;1.30;;;33.00;14.50;;;;;;5065961;28;20127;-73
2022/04/12 09:15:30;;;;;;;4.43;1.65;;;33.60;12.60;;;;;;5054653;28;20082;-74
2022/04/12 09:17:57;;;;;;;4.30;1.33;;;33.80;12.70;;;;;;5071596;28;20561;-74
2022/04/12 09:21:30;;;;;;;4.18;1.40;;;33.90;12.40;;;;;;5054009;28;20053;-73
2022/04/12 09:24:01;;;;;;;9.23;1.70;;;34.10;12.70;;;;;;5072218;28;20045;-73
2022/04/12 09:27:20;;;;;;;4.25;1.92;;;34.20;11.80;;;;;;5072365;28;20029;-73
2022/04/12 09:30:11;;;;;;;4.00;1.40;;;35.10;12.10;;;;;;5071706;28;20460;-73
2022/04/12 09:33:06;;;;;;;4.05;1.52;;;36.00;11.00;;;;;;5071700;28;20029;-73
2022/04/12 09:35:35;;;;;;;5.18;1.52;;;36.10;11.00;;;;;;5068221;28;20052;-73
2022/04/12 09:38:26;;;;;;;4.57;1.70;;;36.50;10.40;;;;;;5053344;28;20044;-73
2022/04/12 09:41:47;;;;;;;4.70;1.85;;;36.70;9.10;;;;;;5069656;28;20044;-73
2022/04/12 09:44:21;;;;;;;6.68;1.92;;;36.30;10.60;;;;;;5070143;28;20039;-73
2022/04/12 09:46:57;;;;;;;4.75;1.70;;;36.20;9.80;;;;;;5053505;28;20126;-74
2022/04/12 09:49:32;;;;;;;5.80;2.33;;;37.20;9.70;;;;;;5036806;28;20036;-73
2022/04/12 09:52:11;;;;;;;5.65;1.92;;;37.80;9.50;;;;;;5053848;28;20055;-73
2022/04/12 09:54:55;;;;;;;5.53;2.13;;;37.90;8.60;;;;;;5069725;28;20048;-73
2022/04/12 09:57:24;;;;;;;5.10;1.65;;;38.30;8.90;;;;;;5069412;28;20037;-74
2022/04/12 09:59:57;;;;;;;5.53;1.88;;;38.60;8.70;;;;;;5058457;28;20211;-73
2022/04/12 10:02:28;;;;;;;4.47;2.15;;;38.60;8.80;;;;;;5070802;28;20052;-73
2022/04/12 10:04:56;;;;;;;6.90;3.00;;;38.70;8.80;;;;;;5073978;28;20033;-75
2022/04/12 10:07:30;;;;;;;6.78;3.90;;;39.20;8.70;;;;;;5076175;28;20530;-73
2022/04/12 10:09:58;;;;;;;6.28;2.33;;;40.30;8.50;;;;;;5075123;28;20060;-73
2022/04/12 10:12:31;;;;;;;4.82;1.83;;;41.40;8.10;;;;;;5074946;28;20044;-73
2022/04/12 10:15:08;;;;;;;4.10;2.13;;;41.80;7.30;;;;;;5074964;28;20123;-74
2022/04/12 10:17:58;;;;;;;4.97;1.77;;;41.70;7.20;;;;;;5058358;28;20095;-73
2022/04/12 10:20:58;;;;;;;4.00;1.67;;;42.50;7.60;;;;;;5073298;28;20036;-74
2022/04/12 10:23:32;;;;;;;6.93;2.05;;;43.20;7.30;;;;;;5073422;28;20390;-74
2022/04/12 10:25:59;;;;;;;6.60;1.83;;;43.00;7.50;;;;;;5074237;28;20470;-74
2022/04/12 10:28:34;;;;;;;4.43;1.73;;;42.30;7.10;;;;;;5075912;28;20138;-73
2022/04/12 10:31:23;;;;;;;4.65;1.60;;;43.00;7.40;;;;;;5074225;28;20033;-73
2022/04/12 10:34:17;;;;;;;3.33;1.63;;;43.90;7.20;;;;;;5057255;28;20032;-73
2022/04/12 10:37:22;;;;;;;3.30;1.67;;;43.80;6.50;;;;;;5057134;28;20500;-73
2022/04/12 10:40:20;;;;;;;7.55;2.15;;;44.70;6.40;;;;;;5075733;28;20051;-73
2022/04/12 10:43:10;;;;;;;3.78;1.40;;;45.50;6.60;;;;;;5074782;28;20430;-74
2022/04/12 10:45:46;;;;;;;5.38;1.92;;;45.30;6.30;;;;;;5075117;28;20060;-74
2022/04/12 10:48:34;;;;;;;3.80;1.83;;;45.30;6.40;;;;;;5074273;28;20051;-73
2022/04/12 10:51:07;;;;;;;4.00;1.80;;;45.50;5.90;;;;;;5072851;28;20086;-73
2022/04/12 10:53:58;;;;;;;6.93;2.05;;;45.60;5.40;;;;;;5075440;28;20037;-74
2022/04/12 10:56:25;;;;;;;3.75;1.60;;;45.80;5.80;;;;;;5075151;28;20067;-74
2022/04/12 10:58:57;;;;;;;5.47;2.20;;;46.30;5.90;;;;;;5075331;28;20032;-73
2022/04/12 11:01:45;;;;;;;5.40;2.55;;;46.40;5.70;;;;;;5073722;28;20598;-74
2022/04/12 11:04:15;;;;;;;7.57;3.83;;;46.80;5.40;;;;;;5074397;28;20107;-74
2022/04/12 11:06:46;;;;;;;6.03;2.03;;;46.80;5.50;;;;;;5057198;28;20075;-74
2022/04/12 11:09:32;;;;;;;4.10;1.80;;;45.90;5.30;;;;;;5075149;28;20036;-74
2022/04/12 11:12:03;;;;;;;5.65;2.33;;;45.50;5.20;;;;;;5073508;28;20036;-73
2022/04/12 11:14:49;;;;;;;3.78;1.90;;;45.50;5.80;;;;;;5056608;28;20154;-73
2022/04/12 11:17:29;;;;;;;3.95;1.60;;;46.20;5.70;;;;;;5073438;28;20040;-73
2022/04/12 11:20:29;;;;;;;4.95;2.60;;;46.30;5.70;;;;;;5072847;28;20041;-73
2022/04/12 11:23:12;;;;;;;3.83;1.90;;;46.60;6.00;;;;;;5073921;28;20037;-74
2022/04/12 11:25:54;;;;;;;4.85;2.47;;;46.80;5.00;;;;;;5058418;28;20558;-74
2022/04/12 11:28:45;;;;;;;4.05;1.83;;;47.50;5.10;;;;;;5074801;28;20058;-73
2022/04/12 11:31:13;;;;;;;3.22;1.60;;;46.30;5.50;;;;;;5056436;28;20367;-74
2022/04/12 11:34:11;;;;;;;5.50;2.15;;;46.80;5.10;;;;;;5073601;28;20040;-74
2022/04/12 11:37:08;;;;;;;4.68;2.08;;;47.50;5.10;;;;;;5071699;28;20113;-74
2022/04/12 11:39:54;;;;;;;4.55;2.38;;;47.80;5.00;;;;;;5073245;28;20048;-74
2022/04/12 11:42:20;;;;;;;3.30;1.60;;;48.80;5.20;;;;;;5074416;28;20139;-73
2022/04/12 11:45:11;;;;;;;3.85;2.03;;;48.50;4.80;;;;;;5074540;28;20033;-74
2022/04/12 11:47:51;;;;;;;7.57;4.07;;;48.00;5.40;;;;;;5073300;28;20464;-74
2022/04/12 11:50:23;;;;;;;8.13;4.68;;;47.80;5.00;;;;;;5055224;28;20040;-74
2022/04/12 11:52:50;;;;;;;4.38;1.58;;;47.40;5.30;;;;;;5056400;28;20032;-73
2022/04/12 11:55:19;;;;;;;3.65;1.85;;;47.10;5.30;;;;;;5073763;28;20058;-74
2022/04/12 11:58:31;;;;;;;3.17;1.80;;;48.00;5.10;;;;;;5073322;28;20040;-74
2022/04/12 12:01:07;;;;;;;5.50;2.17;;;48.40;4.50;;;;;;5073668;28;20036;-74
2022/04/12 12:04:09;;;;;;;5.93;2.60;;;49.00;4.40;;;;;;5072829;28;20029;-74
2022/04/12 12:07:11;;;;;;;3.30;1.70;;;48.60;4.80;;;;;;5064253;28;20433;-74
2022/04/12 12:10:23;;;;;;;4.20;1.58;;;48.50;4.80;;;;;;5053973;28;20048;-74
2022/04/12 12:13:14;;;;;;;3.13;1.70;;;48.90;4.50;;;;;;5037738;28;20372;-74
2022/04/12 12:15:40;;;;;;;3.78;1.73;;;49.10;4.80;;;;;;5013167;28;20104;-74
2022/04/12 12:18:10;;;;;;;5.10;1.90;;;48.50;4.50;;;;;;5014792;28;20045;-74
2022/04/12 12:21:00;;;;;;;2.97;1.60;;;48.60;4.90;;;;;;5013711;28;20504;-74
2022/04/12 12:23:26;;;;;;;4.30;1.80;;;48.60;4.80;;;;;;5031118;28;20052;-74
2022/04/12 12:25:57;;;;;;;5.00;1.70;;;49.10;5.10;;;;;;5030561;28;20075;-74
2022/04/12 12:28:27;;;;;;;4.18;1.92;;;49.40;4.20;;;;;;5031290;28;20065;-74
2022/04/12 12:31:14;;;;;;;5.25;1.73;;;49.30;4.50;;;;;;5014442;28;20107;-74
2022/04/12 12:33:44;;;;;;;3.38;1.60;;;47.90;4.90;;;;;;5014498;28;20132;-73
2022/04/12 12:37:01;;;;;;;3.13;1.63;;;47.40;5.10;;;;;;5029339;28;20493;-74
2022/04/12 12:39:51;;;;;;;4.18;1.95;;;48.10;4.90;;;;;;5031174;28;20148;-74
2022/04/12 12:42:17;;;;;;;3.63;1.90;;;48.00;5.40;;;;;;5030634;28;20037;-74
2022/04/12 12:44:43;;;;;;;4.88;1.65;;;47.80;4.90;;;;;;5031163;28;20487;-74
2022/04/12 12:47:12;;;;;;;4.20;1.90;;;48.20;4.70;;;;;;5030502;28;20053;-74
2022/04/12 12:49:58;;;;;;;4.05;2.00;;;47.80;5.10;;;;;;5030925;28;20045;-74
2022/04/12 12:52:31;;;;;;;2.55;1.30;;;47.60;5.00;;;;;;5030396;28;20049;-74
2022/04/12 12:55:00;;;;;;;3.08;1.70;;;47.90;4.30;;;;;;5037981;28;20040;-74
2022/04/12 12:57:58;;;;;;;4.45;1.67;;;48.30;4.70;;;;;;5071499;28;20037;-74
2022/04/12 13:00:34;;;;;;;3.63;1.67;;;48.70;4.50;;;;;;5055126;28;20122;-74
2022/04/12 13:03:13;;;;;;;2.65;1.60;;;48.90;4.70;;;;;;5071956;28;20115;-74
2022/04/12 13:06:07;;;;;;;3.45;1.50;;;48.10;4.90;;;;;;5053818;28;20041;-74
2022/04/12 13:08:36;;;;;;;2.50;1.30;;;47.40;4.90;;;;;;5073069;28;20052;-74
2022/04/12 13:11:02;;;;;;;3.65;1.60;;;47.00;5.70;;;;;;5072481;28;20032;-74
2022/04/12 13:16:15;;;;;;;3.25;1.77;;;48.50;4.90;;;;;;5071465;28;20035;-73
2022/04/12 13:18:42;;;;;;;6.80;1.60;;;49.30;5.20;;;;;;5068702;28;20417;-74
2022/04/12 13:21:11;;;;;;;4.45;1.80;;;49.50;4.80;;;;;;5070204;28;20516;-73
2022/04/12 13:23:46;;;;;;;5.55;1.30;;;49.10;4.40;;;;;;5071522;28;20032;-74
2022/04/12 13:26:25;;;;;;;5.53;2.20;;;49.10;5.10;;;;;;5071116;28;20059;-74
2022/04/12 13:29:00;;;;;;;3.05;1.70;;;49.30;4.90;;;;;;5072998;28;20098;-74
2022/04/12 13:31:32;;;;;;;4.72;2.38;;;48.80;4.90;;;;;;5054228;28;20044;-74
2022/04/12 13:34:19;;;;;;;7.00;1.90;;;48.80;4.90;;;;;;5072573;28;20045;-74
2022/04/12 13:36:47;;;;;;;2.78;1.60;;;48.50;4.80;;;;;;5069963;28;20040;-74
2022/04/12 13:39:41;;;;;;;3.92;1.70;;;48.90;4.70;;;;;;5070913;28;20029;-74
2022/04/12 13:42:14;;;;;;;3.00;1.55;;;48.80;5.00;;;;;;5071117;28;20044;-74
2022/04/12 13:44:57;;;;;;;4.13;1.90;;;49.20;5.00;;;;;;5071408;28;20537;-74
2022/04/12 13:47:23;;;;;;;3.17;1.48;;;48.80;4.70;;;;;;5072325;28;20071;-74
2022/04/12 13:49:50;;;;;;;5.22;1.92;;;48.50;5.20;;;;;;5071238;28;20111;-74
2022/04/12 13:52:29;;;;;;;2.50;1.30;;;48.30;4.80;;;;;;5070182;28;20564;-73